createdAt,value
2023-04-25T00:01:20.569Z,1.70
2023-04-25T00:03:48.988Z,1.67
2023-04-25T00:06:18.641Z,1.80
2023-04-25T00:08:46.514Z,2.08
2023-04-25T00:11:14.377Z,1.70
2023-04-25T00:13:43.620Z,1.90
2023-04-25T00:16:11.803Z,1.83
2023-04-25T00:18:39.697Z,1.75
2023-04-25T00:21:07.684Z,1.73
2023-04-25T00:23:37.249Z,1.67
2023-04-25T00:26:05.834Z,1.98
2023-04-25T00:28:33.742Z,1.60
2023-04-25T00:31:03.064Z,1.60
2023-04-25T00:33:30.976Z,1.80
2023-04-25T00:35:58.850Z,1.38
2023-04-25T00:38:26.764Z,1.90
2023-04-25T00:40:56.649Z,1.58
2023-04-25T00:43:24.762Z,1.48
2023-04-25T00:45:54.146Z,1.85
2023-04-25T00:48:24.304Z,1.80
2023-04-25T00:50:55.557Z,1.70
2023-04-25T00:53:23.680Z,1.75
2023-04-25T00:55:52.760Z,1.63
2023-04-25T00:58:21.017Z,1.60
2023-04-25T01:00:51.114Z,2.00
2023-04-25T01:03:20.819Z,2.00
2023-04-25T01:05:50.878Z,2.25
2023-04-25T01:08:18.791Z,2.20
2023-04-25T01:10:46.635Z,2.20
2023-04-25T01:13:14.609Z,2.47
2023-04-25T01:15:42.542Z,2.30
2023-04-25T01:18:10.716Z,2.08
2023-04-25T01:20:39.967Z,2.13
2023-04-25T01:23:09.426Z,2.38
2023-04-25T01:25:37.994Z,1.85
2023-04-25T01:28:06.116Z,1.80
2023-04-25T01:30:34.509Z,2.25
2023-04-25T01:33:03.691Z,2.42
2023-04-25T01:35:32.412Z,2.50
2023-04-25T01:38:00.496Z,2.50
2023-04-25T01:40:30.135Z,2.35
2023-04-25T01:42:58.836Z,2.53
2023-04-25T01:45:26.755Z,2.15
2023-04-25T01:47:55.570Z,2.50
2023-04-25T01:50:23.514Z,2.58
2023-04-25T01:52:51.639Z,2.33
2023-04-25T01:55:21.316Z,2.08
2023-04-25T01:58:02.364Z,2.60
2023-04-25T02:00:48.710Z,2.47
2023-04-25T02:03:16.782Z,2.35
2023-04-25T02:05:45.336Z,2.92
2023-04-25T02:08:15.289Z,2.97
2023-04-25T02:10:43.151Z,2.40
2023-04-25T02:13:21.403Z,2.28
2023-04-25T02:15:58.814Z,2.40
2023-04-25T02:18:27.396Z,2.53
2023-04-25T02:20:55.385Z,2.50
2023-04-25T02:23:23.355Z,3.00
2023-04-25T02:25:51.538Z,2.85
2023-04-25T02:28:20.798Z,2.65
2023-04-25T02:30:48.751Z,2.75
2023-04-25T02:33:17.972Z,2.72
2023-04-25T02:35:45.893Z,2.85
2023-04-25T02:38:13.746Z,2.38
2023-04-25T02:40:42.060Z,2.53
2023-04-25T02:43:10.060Z,3.00
2023-04-25T02:45:39.289Z,3.13
2023-04-25T02:48:07.655Z,2.80
2023-04-25T02:50:35.638Z,2.72
2023-04-25T02:53:03.587Z,2.63
2023-04-25T02:55:37.889Z,3.17
2023-04-25T02:58:07.211Z,2.90
2023-04-25T03:00:47.706Z,2.75
2023-04-25T03:03:19.271Z,2.83
2023-04-25T03:05:48.059Z,3.00
2023-04-25T03:08:17.565Z,2.92
2023-04-25T03:10:45.693Z,3.28
2023-04-25T03:13:15.903Z,2.80
2023-04-25T03:15:45.625Z,2.90
2023-04-25T03:18:14.856Z,3.28
2023-04-25T03:20:43.925Z,3.28
2023-04-25T03:23:11.858Z,2.80
2023-04-25T03:25:42.596Z,3.45
2023-04-25T03:28:10.670Z,3.30
2023-04-25T03:30:38.756Z,3.30
2023-04-25T03:33:06.787Z,3.42
2023-04-25T03:35:36.032Z,3.13
2023-04-25T03:38:03.977Z,4.18
2023-04-25T03:40:36.816Z,3.00
2023-04-25T03:46:04.750Z,2.70
2023-04-25T03:48:32.809Z,2.75
2023-04-25T03:51:02.117Z,2.95
2023-04-25T03:53:31.174Z,2.80
2023-04-25T03:56:22.305Z,3.05
2023-04-25T03:58:58.438Z,3.15
2023-04-25T04:01:28.232Z,3.17
2023-04-25T04:03:56.866Z,3.20
2023-04-25T04:06:27.674Z,2.75
2023-04-25T04:09:04.053Z,3.30
2023-04-25T04:11:35.205Z,3.08
2023-04-25T04:14:03.415Z,3.10
2023-04-25T04:16:33.958Z,3.15
2023-04-25T04:19:02.532Z,3.45
2023-04-25T04:21:32.909Z,3.28
2023-04-25T04:24:01.720Z,3.47
2023-04-25T04:26:34.627Z,4.45
2023-04-25T04:29:30.907Z,2.88
2023-04-25T04:32:12.257Z,3.25
2023-04-25T04:34:42.179Z,2.58
2023-04-25T04:37:14.022Z,2.95
2023-04-25T04:39:42.950Z,3.45
2023-04-25T04:42:20.815Z,3.00
2023-04-25T04:45:02.620Z,2.85
2023-04-25T04:48:09.721Z,3.90
2023-04-25T04:50:58.022Z,2.80
2023-04-25T04:53:45.969Z,2.70
2023-04-25T04:56:24.766Z,2.70
2023-04-25T04:59:06.402Z,2.83
2023-04-25T05:01:45.145Z,2.88
2023-04-25T05:04:44.275Z,2.97
2023-04-25T05:07:37.465Z,2.80
2023-04-25T05:13:20.225Z,2.60
2023-04-25T05:15:51.001Z,3.00
2023-04-25T05:18:37.561Z,2.90
2023-04-25T05:21:24.873Z,3.03
2023-04-25T05:24:11.112Z,3.42
2023-04-25T05:26:40.900Z,2.50
2023-04-25T05:29:23.855Z,2.60
2023-04-25T05:32:17.118Z,3.10
2023-04-25T05:34:45.382Z,2.83
2023-04-25T05:37:22.195Z,3.13
2023-04-25T05:39:59.329Z,3.15
2023-04-25T05:42:48.867Z,3.67
2023-04-25T05:45:44.822Z,2.88
2023-04-25T05:48:34.110Z,2.95
2023-04-25T05:51:19.512Z,3.50
2023-04-25T05:54:10.685Z,3.85
2023-04-25T05:56:38.656Z,3.08
2023-04-25T05:59:08.094Z,3.65
2023-04-25T06:01:36.330Z,4.00
2023-04-25T06:04:04.935Z,3.60
2023-04-25T06:06:34.769Z,3.78
2023-04-25T06:09:02.786Z,3.70
2023-04-25T06:11:32.934Z,3.83
2023-04-25T06:14:01.052Z,3.85
2023-04-25T06:16:30.697Z,3.65
2023-04-25T06:18:58.601Z,3.67
2023-04-25T06:21:28.420Z,3.70
2023-04-25T06:23:56.268Z,3.67
2023-04-25T06:26:25.419Z,4.28
2023-04-25T06:28:53.848Z,3.35
2023-04-25T06:31:21.849Z,3.90
2023-04-25T06:33:55.706Z,4.07
2023-04-25T06:36:26.745Z,3.80
2023-04-25T06:39:01.576Z,4.25
2023-04-25T06:41:29.511Z,3.80
2023-04-25T06:46:34.763Z,3.90
2023-04-25T06:49:04.183Z,3.67
2023-04-25T06:51:32.448Z,3.47
2023-04-25T06:54:01.879Z,3.20
2023-04-25T06:56:37.255Z,3.58
2023-04-25T07:01:40.114Z,3.50
2023-04-25T07:04:14.787Z,3.20
2023-04-25T07:06:49.317Z,4.72
2023-04-25T07:09:20.446Z,3.35
2023-04-25T07:11:50.772Z,3.40
2023-04-25T07:14:18.855Z,3.25
2023-04-25T07:16:47.288Z,3.13
2023-04-25T07:19:16.889Z,3.60
2023-04-25T07:21:45.181Z,2.85
2023-04-25T07:24:13.635Z,3.30
2023-04-25T07:26:46.528Z,3.40
2023-04-25T07:29:24.323Z,3.28
2023-04-25T07:31:52.401Z,3.28
2023-04-25T07:34:23.166Z,3.20
2023-04-25T07:36:51.573Z,3.60
2023-04-25T07:39:20.543Z,3.40
2023-04-25T07:41:48.618Z,3.28
2023-04-25T07:44:23.159Z,3.58
2023-04-25T07:46:51.342Z,3.80
2023-04-25T07:49:19.333Z,3.15
2023-04-25T07:51:48.736Z,3.33
2023-04-25T07:54:19.532Z,4.43
2023-04-25T07:59:28.714Z,3.10
2023-04-25T08:01:59.335Z,3.65
2023-04-25T08:04:27.773Z,3.00
2023-04-25T08:09:36.428Z,2.97
2023-04-25T08:12:06.953Z,3.00
2023-04-25T08:14:38.281Z,4.30
2023-04-25T08:17:07.374Z,3.88
2023-04-25T08:19:41.213Z,4.10
2023-04-25T08:22:16.636Z,3.47
2023-04-25T08:24:56.191Z,3.33
2023-04-25T08:27:24.690Z,4.75
2023-04-25T08:29:52.965Z,3.03
2023-04-25T08:32:22.205Z,3.50
2023-04-25T08:35:17.451Z,3.55
2023-04-25T08:37:47.143Z,3.22
2023-04-25T08:40:17.520Z,3.28
2023-04-25T08:43:15.826Z,3.40
2023-04-25T08:45:44.628Z,3.42
2023-04-25T08:48:19.407Z,2.25
2023-04-25T08:50:52.320Z,3.17
2023-04-25T08:53:28.449Z,3.45
2023-04-25T08:56:01.033Z,3.90
2023-04-25T08:58:29.922Z,2.90
2023-04-25T09:00:58.085Z,3.33
2023-04-25T09:03:29.960Z,3.13
2023-04-25T09:05:58.073Z,2.03
2023-04-25T09:08:27.317Z,2.88
2023-04-25T09:10:55.258Z,2.65
2023-04-25T09:13:28.404Z,2.90
2023-04-25T09:16:18.374Z,3.05
2023-04-25T09:19:05.985Z,2.95
2023-04-25T09:21:37.283Z,3.15
2023-04-25T09:24:09.544Z,2.95
2023-04-25T09:26:37.517Z,2.75
2023-04-25T09:29:08.150Z,3.05
2023-04-25T09:31:38.803Z,2.75
2023-04-25T09:34:11.724Z,3.25
2023-04-25T09:36:45.000Z,2.60
2023-04-25T09:39:30.756Z,2.55
2023-04-25T09:42:07.251Z,3.20
2023-04-25T09:44:35.884Z,2.22
2023-04-25T09:47:04.706Z,2.22
2023-04-25T09:49:33.975Z,2.45
2023-04-25T09:52:05.987Z,2.20
2023-04-25T09:54:42.160Z,2.15
2023-04-25T09:57:15.743Z,2.90
2023-04-25T09:59:48.434Z,2.60
2023-04-25T10:02:19.945Z,2.60
2023-04-25T10:04:52.673Z,2.63
2023-04-25T10:07:39.254Z,2.08
2023-04-25T10:10:15.195Z,2.03
2023-04-25T10:12:45.121Z,2.15
2023-04-25T10:15:14.401Z,2.38
2023-04-25T10:17:42.515Z,2.33
2023-04-25T10:20:11.960Z,2.45
2023-04-25T10:22:44.485Z,2.25
2023-04-25T10:25:14.999Z,2.95
2023-04-25T10:27:43.301Z,2.55
2023-04-25T10:30:16.466Z,2.13
2023-04-25T10:32:46.128Z,2.50
2023-04-25T10:35:16.445Z,2.10
2023-04-25T10:38:01.494Z,2.50
2023-04-25T10:40:31.294Z,2.60
2023-04-25T10:43:37.591Z,2.47
2023-04-25T10:46:15.762Z,2.78
2023-04-25T10:48:50.027Z,2.90
2023-04-25T10:51:20.659Z,2.38
2023-04-25T10:53:49.440Z,2.55
2023-04-25T10:56:22.322Z,2.65
2023-04-25T10:58:52.197Z,1.90
2023-04-25T11:01:26.717Z,2.30
2023-04-25T11:04:00.543Z,2.70
2023-04-25T11:06:36.178Z,3.00
2023-04-25T11:09:04.485Z,2.28
2023-04-25T11:11:32.345Z,2.40
2023-04-25T11:14:00.533Z,2.58
2023-04-25T11:16:29.839Z,2.35
2023-04-25T11:18:59.810Z,2.53
2023-04-25T11:21:28.782Z,2.38
2023-04-25T11:23:58.468Z,2.00
2023-04-25T11:26:27.233Z,2.40
2023-04-25T11:28:59.491Z,2.05
2023-04-25T11:31:27.663Z,2.25
2023-04-25T11:33:59.063Z,2.17
2023-04-25T11:36:27.912Z,2.22
2023-04-25T11:38:56.421Z,2.13
2023-04-25T11:41:24.455Z,1.80
2023-04-25T11:43:55.561Z,2.10
2023-04-25T11:46:24.308Z,2.10
2023-04-25T11:48:53.411Z,1.95
2023-04-25T11:51:22.873Z,4.05
2023-04-25T11:53:51.191Z,4.07
2023-04-25T11:56:19.135Z,4.95
2023-04-25T11:58:57.019Z,1.98
2023-04-25T12:01:35.910Z,2.38
2023-04-25T12:04:14.241Z,2.30
2023-04-25T12:06:47.696Z,2.28
2023-04-25T12:09:19.762Z,2.03
2023-04-25T12:11:48.870Z,2.80
2023-04-25T12:14:25.133Z,2.60
2023-04-25T12:16:53.549Z,2.90
2023-04-25T12:19:22.443Z,1.85
2023-04-25T12:24:26.488Z,1.92
2023-04-25T12:26:55.926Z,2.20
2023-04-25T12:29:27.785Z,2.17
2023-04-25T12:32:00.825Z,2.42
2023-04-25T12:34:28.840Z,2.28
2023-04-25T12:36:58.151Z,2.33
2023-04-25T12:39:27.136Z,2.33
2023-04-25T12:41:55.674Z,2.35
2023-04-25T12:44:24.042Z,1.80
2023-04-25T12:46:52.048Z,1.58
2023-04-25T12:49:20.048Z,2.25
2023-04-25T12:51:48.592Z,2.10
2023-04-25T12:54:18.012Z,2.45
2023-04-25T12:56:46.026Z,2.05
2023-04-25T12:59:14.003Z,1.67
2023-04-25T13:01:42.122Z,1.80
2023-04-25T13:04:10.402Z,2.13
2023-04-25T13:06:38.416Z,2.13
2023-04-25T13:09:07.707Z,2.25
2023-04-25T13:11:37.554Z,1.80
2023-04-25T13:14:07.735Z,2.00
2023-04-25T13:16:35.904Z,1.90
2023-04-25T13:19:04.071Z,1.48
2023-04-25T13:21:33.601Z,1.83
2023-04-25T13:24:01.764Z,1.80
2023-04-25T13:26:29.668Z,1.52
2023-04-25T13:28:59.085Z,2.08
2023-04-25T13:31:27.281Z,2.15
2023-04-25T13:33:55.244Z,1.42
2023-04-25T13:36:23.101Z,1.80
2023-04-25T13:38:51.498Z,1.85
2023-04-25T13:41:19.815Z,2.10
2023-04-25T13:43:49.853Z,1.83
2023-04-25T13:48:52.674Z,1.60
2023-04-25T13:51:21.980Z,1.17
2023-04-25T13:53:50.001Z,2.08
2023-04-25T13:56:18.013Z,1.73
2023-04-25T13:58:46.262Z,1.90
2023-04-25T14:01:14.682Z,1.80
2023-04-25T14:03:44.043Z,1.83
2023-04-25T14:06:12.134Z,2.05
2023-04-25T14:08:40.202Z,1.85
2023-04-25T14:11:08.036Z,2.17
2023-04-25T14:13:35.883Z,1.83
2023-04-25T14:16:03.817Z,1.73
2023-04-25T14:18:31.717Z,1.63
2023-04-25T14:21:01.016Z,1.70
2023-04-25T14:23:28.981Z,1.50
2023-04-25T14:25:56.924Z,1.52
2023-04-25T14:28:24.766Z,1.38
2023-04-25T14:30:52.793Z,1.45
2023-04-25T14:33:20.761Z,1.58
2023-04-25T14:35:48.618Z,1.17
2023-04-25T14:38:17.882Z,2.00
2023-04-25T14:40:45.936Z,2.50
2023-04-25T14:43:13.770Z,1.73
2023-04-25T14:45:41.739Z,2.10
2023-04-25T14:48:09.804Z,2.72
2023-04-25T14:50:37.741Z,1.80
2023-04-25T14:53:05.999Z,2.28
2023-04-25T14:55:35.984Z,1.40
2023-04-25T14:58:03.979Z,2.00
2023-04-25T15:00:32.733Z,1.73
2023-04-25T15:03:01.246Z,2.22
2023-04-25T15:05:29.504Z,1.58
2023-04-25T15:07:57.359Z,1.85
2023-04-25T15:10:25.216Z,2.60
2023-04-25T15:12:55.567Z,1.63
2023-04-25T15:15:26.978Z,1.63
2023-04-25T15:17:58.765Z,1.70
2023-04-25T15:20:28.511Z,1.58
2023-04-25T15:22:56.655Z,1.55
2023-04-25T15:25:24.740Z,1.88
2023-04-25T15:27:54.513Z,1.52
2023-04-25T15:30:22.382Z,1.02
2023-04-25T15:32:50.374Z,1.05
2023-04-25T15:35:18.323Z,1.10
2023-04-25T15:37:46.232Z,1.48
2023-04-25T15:40:17.005Z,1.33
2023-04-25T15:42:47.893Z,1.40
2023-04-25T15:45:17.904Z,1.10
2023-04-25T15:47:46.516Z,1.25
2023-04-25T15:50:15.928Z,1.42
2023-04-25T15:52:44.274Z,1.30
2023-04-25T15:55:12.917Z,1.30
2023-04-25T15:57:41.987Z,1.55
2023-04-25T16:00:13.321Z,1.48
2023-04-25T16:02:44.131Z,1.92
2023-04-25T16:05:14.620Z,1.30
2023-04-25T16:07:44.266Z,1.25
2023-04-25T16:10:13.725Z,1.10
2023-04-25T16:12:41.676Z,1.30
2023-04-25T16:15:10.237Z,1.27
2023-04-25T16:17:38.181Z,1.08
2023-04-25T16:20:10.609Z,1.23
2023-04-25T16:22:39.687Z,1.30
2023-04-25T16:25:08.389Z,1.45
2023-04-25T16:27:37.963Z,1.38
2023-04-25T16:30:08.119Z,2.85
2023-04-25T16:32:36.382Z,1.10
2023-04-25T16:35:04.458Z,1.17
2023-04-25T16:37:33.772Z,0.90
2023-04-25T16:40:01.705Z,1.00
2023-04-25T16:42:29.546Z,1.25
2023-04-25T16:44:57.622Z,1.30
2023-04-25T16:47:26.261Z,0.98
2023-04-25T16:49:54.270Z,1.20
2023-04-25T16:52:23.714Z,1.70
2023-04-25T16:54:53.014Z,1.02
2023-04-25T16:57:21.210Z,1.30
2023-04-25T16:59:49.071Z,1.23
2023-04-25T17:02:17.202Z,1.10
2023-04-25T17:04:45.299Z,1.15
2023-04-25T17:07:13.264Z,0.75
2023-04-25T17:09:41.143Z,1.02
2023-04-25T17:12:10.460Z,1.30
2023-04-25T17:14:39.047Z,0.75
2023-04-25T17:17:07.026Z,1.60
2023-04-25T17:19:35.024Z,1.00
2023-04-25T17:22:03.074Z,1.48
2023-04-25T17:24:31.029Z,0.93
2023-04-25T17:26:58.991Z,1.23
2023-04-25T17:29:28.201Z,1.30
2023-04-25T17:31:57.104Z,2.08
2023-04-25T17:34:25.647Z,1.20
2023-04-25T17:36:53.514Z,1.30
2023-04-25T17:39:21.524Z,1.42
2023-04-25T17:41:49.598Z,1.20
2023-04-25T17:44:17.453Z,1.40
2023-04-25T17:46:47.063Z,1.40
2023-04-25T17:49:14.948Z,1.25
2023-04-25T17:51:42.784Z,1.42
2023-04-25T17:54:10.643Z,1.58
2023-04-25T17:56:38.962Z,1.10
2023-04-25T17:59:07.128Z,0.93
2023-04-25T18:01:35.114Z,1.33
2023-04-25T18:04:05.354Z,1.25
2023-04-25T18:06:33.895Z,1.48
2023-04-25T18:09:02.569Z,1.30
2023-04-25T18:11:30.785Z,1.52
2023-04-25T18:13:58.707Z,1.13
2023-04-25T18:16:26.748Z,2.00
2023-04-25T18:18:54.887Z,1.27
2023-04-25T18:21:24.450Z,2.25
2023-04-25T18:23:52.322Z,1.33
2023-04-25T18:26:20.338Z,1.30
2023-04-25T18:28:48.291Z,1.02
2023-04-25T18:31:17.419Z,1.23
2023-04-25T18:33:45.587Z,1.30
2023-04-25T18:36:13.466Z,1.30
2023-04-25T18:38:42.679Z,1.40
2023-04-25T18:41:21.127Z,1.42
2023-04-25T18:44:01.276Z,1.50
2023-04-25T18:46:29.672Z,1.20
2023-04-25T18:48:57.561Z,1.58
2023-04-25T18:51:27.734Z,1.60
2023-04-25T18:53:57.187Z,1.80
2023-04-25T18:56:25.673Z,1.50
2023-04-25T18:58:54.126Z,1.90
2023-04-25T19:01:22.339Z,1.40
2023-04-25T19:03:55.794Z,1.58
2023-04-25T19:06:24.872Z,1.42
2023-04-25T19:08:53.191Z,1.20
2023-04-25T19:11:23.432Z,1.60
2023-04-25T19:13:51.467Z,1.40
2023-04-25T19:16:22.205Z,2.00
2023-04-25T19:18:52.043Z,1.17
2023-04-25T19:21:20.300Z,1.52
2023-04-25T19:23:48.292Z,1.42
2023-04-25T19:26:17.113Z,1.20
2023-04-25T19:28:46.352Z,1.25
2023-04-25T19:31:14.404Z,1.83
2023-04-25T19:33:43.037Z,1.10
2023-04-25T19:36:10.895Z,1.48
2023-04-25T19:38:38.740Z,1.48
2023-04-25T19:41:07.104Z,1.35
2023-04-25T19:43:34.962Z,1.20
2023-04-25T19:46:04.457Z,1.00
2023-04-25T19:48:32.320Z,1.60
2023-04-25T19:51:00.179Z,1.13
2023-04-25T19:53:27.935Z,1.70
2023-04-25T19:55:55.780Z,1.42
2023-04-25T19:58:23.645Z,1.33
2023-04-25T20:00:51.498Z,1.85
2023-04-25T20:03:20.814Z,1.60
2023-04-25T20:05:48.692Z,1.30
2023-04-25T20:08:16.498Z,1.40
2023-04-25T20:10:44.372Z,1.65
2023-04-25T20:13:12.267Z,1.50
2023-04-25T20:15:40.207Z,1.88
2023-04-25T20:18:08.828Z,1.30
2023-04-25T20:20:38.641Z,1.50
2023-04-25T20:23:06.911Z,1.63
2023-04-25T20:25:34.786Z,1.23
2023-04-25T20:28:02.610Z,1.13
2023-04-25T20:30:30.613Z,1.98
2023-04-25T20:32:58.489Z,1.40
2023-04-25T20:35:26.983Z,2.05
2023-04-25T20:37:56.249Z,1.42
2023-04-25T20:40:24.142Z,1.60
2023-04-25T20:42:52.327Z,1.50
2023-04-25T20:45:20.260Z,1.40
2023-04-25T20:47:48.250Z,1.40
2023-04-25T20:50:16.209Z,1.08
2023-04-25T20:52:44.473Z,1.00
2023-04-25T20:55:13.805Z,1.73
2023-04-25T20:57:42.435Z,1.48
2023-04-25T21:00:18.074Z,1.35
2023-04-25T21:02:46.595Z,1.20
2023-04-25T21:05:14.801Z,1.20
2023-04-25T21:07:43.090Z,1.55
2023-04-25T21:10:12.916Z,1.25
2023-04-25T21:12:44.058Z,1.55
2023-04-25T21:15:13.403Z,0.93
2023-04-25T21:17:41.780Z,1.48
2023-04-25T21:20:10.866Z,0.93
2023-04-25T21:22:44.721Z,1.35
2023-04-25T21:25:15.078Z,1.40
2023-04-25T21:27:44.342Z,1.23
2023-04-25T21:30:13.365Z,1.30
2023-04-25T21:32:41.272Z,1.48
2023-04-25T21:35:09.454Z,1.00
2023-04-25T21:37:37.544Z,1.40
2023-04-25T21:40:06.861Z,1.23
2023-04-25T21:42:34.829Z,1.40
2023-04-25T21:45:07.235Z,1.25
2023-04-25T21:47:35.891Z,1.60
2023-04-25T21:50:04.127Z,1.10
2023-04-25T21:52:32.344Z,1.10
2023-04-25T21:55:00.344Z,1.13
2023-04-25T21:57:28.416Z,1.17
2023-04-25T21:59:56.406Z,1.40
2023-04-25T22:02:27.286Z,1.50
2023-04-25T22:04:55.511Z,1.33
2023-04-25T22:07:23.445Z,1.10
2023-04-25T22:09:55.057Z,1.60
2023-04-25T22:12:23.906Z,1.40
2023-04-25T22:14:51.830Z,1.60
2023-04-25T22:17:19.788Z,1.23
2023-04-25T22:19:50.655Z,1.40
2023-04-25T22:22:19.336Z,1.30
2023-04-25T22:24:48.216Z,1.30
2023-04-25T22:27:16.162Z,1.90
2023-04-25T22:29:44.016Z,1.27
2023-04-25T22:32:11.839Z,1.73
2023-04-25T22:34:39.696Z,1.30
2023-04-25T22:37:08.986Z,1.30
2023-04-25T22:39:36.898Z,1.10
2023-04-25T22:42:05.944Z,1.25
2023-04-25T22:44:34.626Z,1.25
2023-04-25T22:47:02.603Z,1.30
2023-04-25T22:49:30.512Z,1.27
2023-04-25T22:51:58.396Z,1.38
2023-04-25T22:54:28.476Z,0.98
2023-04-25T22:56:56.360Z,1.63
2023-04-25T22:59:24.253Z,1.15
2023-04-25T23:01:52.407Z,1.20
2023-04-25T23:04:20.953Z,1.42
2023-04-25T23:06:48.998Z,1.60
2023-04-25T23:09:17.025Z,1.23
2023-04-25T23:11:46.216Z,0.93
2023-04-25T23:14:14.122Z,1.15
2023-04-25T23:16:42.017Z,1.23
2023-04-25T23:19:10.635Z,1.90
2023-04-25T23:21:39.009Z,1.30
2023-04-25T23:24:07.444Z,1.05
2023-04-25T23:26:35.322Z,1.20
2023-04-25T23:29:05.108Z,1.27
2023-04-25T23:31:33.113Z,1.02
2023-04-25T23:34:00.987Z,1.20
2023-04-25T23:36:28.851Z,1.50
2023-04-25T23:38:57.098Z,1.13
2023-04-25T23:41:25.287Z,1.10
2023-04-25T23:43:53.235Z,2.10
2023-04-25T23:46:22.555Z,1.50
2023-04-25T23:48:50.675Z,1.35
2023-04-25T23:51:18.643Z,1.25
2023-04-25T23:53:46.497Z,2.00
2023-04-25T23:56:14.322Z,1.42
2023-04-25T23:58:42.266Z,1.40
